CDT,Max TemperatureF,Mean TemperatureF,Min TemperatureF,Max Dew PointF,MeanDew PointF,Min DewpointF,Max Humidity, Mean Humidity, Min Humidity, Max Sea Level PressureIn, Mean Sea Level PressureIn, Min Sea Level PressureIn, Max VisibilityMiles, Mean VisibilityMiles, Min VisibilityMiles, Max Wind SpeedMPH, Mean Wind SpeedMPH, Max Gust SpeedMPH,PrecipitationIn, CloudCover, Events, WindDirDegrees
2013-6-1,75,58,44,61,54,42,100,84,46,29.75,29.65,29.59,10,8,0,18,4,24,1.55,6,Fog-Rain-Thunderstorm,355
2013-6-2,59,49,37,43,37,33,93,73,40,30.04,29.90,29.75,10,10,6,21,14,30,0.01,5,Rain,326
2013-6-3,68,50,33,39,34,30,100,67,27,30.15,30.05,30.00,10,8,0,16,3,23,0.00,1,Fog,336
2013-6-4,61,46,33,44,36,30,100,70,36,30.25,30.19,30.15,10,8,0,8,2,,0.00,5,Fog,174
2013-6-5,55,50,46,48,46,41,93,83,72,30.21,30.14,30.09,10,10,3,9,2,,0.01,8,Rain,105
2013-6-6,59,54,48,45,43,38,89,71,51,30.07,30.05,30.02,10,10,10,8,5,,0.00,7,Rain,40
2013-6-7,73,58,46,48,42,37,86,59,30,30.05,29.99,29.93,10,10,10,6,2,,0.00,6,,300
2013-6-8,73,60,48,47,44,39,90,59,31,30.05,29.99,29.93,10,10,10,12,2,21,0.00,3,,196
2013-6-9,69,55,42,53,49,39,93,70,57,30.09,30.03,29.94,10,10,10,15,3,20,0.00,3,Rain,115
2013-6-10,78,67,57,59,55,50,93,66,50,29.91,29.84,29.79,10,10,6,9,6,,0.09,3,Rain,126
2013-6-11,82,68,55,61,57,52,100,81,39,29.89,29.84,29.78,10,6,0,12,2,16,0.00,5,Fog,341
2013-6-12,82,65,48,57,51,46,94,73,29,29.91,29.86,29.78,10,8,0,12,2,,0.00,1,Fog,237
2013-6-13,69,60,48,52,50,45,89,69,47,30.12,30.00,29.83,10,10,10,18,9,28,0.00,2,,352
2013-6-14,78,60,44,46,41,33,93,53,22,30.18,30.10,30.00,10,10,10,12,3,,0.00,0,,101
2013-6-15,71,64,57,63,57,45,96,79,57,29.99,29.90,29.80,10,9,4,9,3,,0.02,7,Rain-Thunderstorm,184
2013-6-16,82,69,55,63,55,43,100,74,27,29.88,29.81,29.78,10,8,2,22,6,45,0.06,4,Rain-Thunderstorm,286
2013-6-17,64,56,46,54,51,39,94,78,63,30.09,29.96,29.86,10,10,10,10,5,,0.02,6,Rain,32
2013-6-18,73,54,35,41,38,35,100,63,28,30.15,30.11,30.08,10,8,2,8,3,,0.00,0,,17
2013-6-19,78,58,41,49,41,36,89,53,26,30.16,30.10,30.04,10,10,10,9,3,,0.00,0,,163
2013-6-20,81,66,53,65,58,49,94,71,47,30.12,30.08,30.06,10,10,9,12,3,,0.05,4,Rain-Thunderstorm,329
2013-6-21,72,64,57,66,62,55,97,90,81,30.11,29.95,29.82,10,7,2,16,6,23,0.13,7,Rain-Thunderstorm,110
2013-6-22,73,66,60,63,60,58,100,85,68,30.09,30.03,29.95,10,9,2,12,6,,0.00,7,Rain,67
2013-6-23,86,73,60,69,62,59,100,85,55,29.95,29.89,29.78,10,6,0,15,6,22,0.00,6,Fog-Rain-Thunderstorm,159
2013-6-24,87,72,57,67,62,55,97,72,44,29.94,29.87,29.80,10,9,1,12,3,18,0.00,1,,236
2013-6-25,88,78,69,69,64,57,90,67,39,29.83,29.80,29.77,10,10,10,7,3,,0.00,2,,235
2013-6-26,84,72,60,70,64,60,100,88,61,29.85,29.77,29.69,10,6,0,23,3,37,0.93,4,Fog-Rain-Thunderstorm,177
2013-6-27,84,72,62,67,63,56,100,79,49,29.77,29.72,29.67,10,9,2,16,3,26,0.56,5,Rain-Thunderstorm,296
2013-6-28,72,65,59,63,60,57,96,84,71,29.72,29.67,29.62,10,9,2,15,3,17,0.07,6,Rain,359
2013-6-29,73,64,54,59,54,44,94,75,42,29.92,29.77,29.70,10,9,3,16,8,24,0.03,5,Rain,2
2013-6-30,81,65,50,53,45,38,90,55,26,30.11,30.02,29.94,10,10,10,12,6,16,0.00,1,,352